PWSweather.com
Personal Weather Stations
Station Observations
HLT9876
Houston Levee Trace, Germantown, TN 38139

Houston Levee TraceGermantown, TN 38139

Lat: 35.0702, Lon: -89.7363

Elevation: 353

Station Type: Davis Vantage Pro2

http://mid-southweather.com/index.html

Latest ConditionsUpdated 11:21:04 PM CDT Sunday, Jun 24, 2018
Currently Today's Max Today's Min Today's Average
Temperature 79.0°F26.1°C 88.6°F31.4°C 69.4°F20.8°C 81.1°F27.3°C
Dew Point 73.7°F23.2°C 76.6°F24.8°C 66.8°F19.3°C 73.7°F23.2°C
Winds 3.0 mph SSE4.8 kmh SSE 10.0 mph -16.1 kmh - - 1.8 mph 2.9 kmh
Wind Gusts 9.0 mph14.5 kmh 16.0 mph25.7 kmh - -
Humidity 84% 94% 61% 79%
Pressure 29.89 in1012.2 mb 29.95 in1014.2 mb 29.80 in1009.1 mb -
Precipitation - 0.18 in4.6 mm - -
Hour Temp Dew Point Humidity Winds Wind Gusts Pressure Precip Precip Rate Daily Precip Total
11:21 PM 79.0°F26.1°C 73.7°F23.2°C 84% 3.0 mph SSE4.8 kmh SSE 9.0 mph14.5 kmh 29.89 in1012.2 mb 0.00 in0.0 mm 0.00 in0.0 mm 0.18 in4.6 mm
11:16 PM 79.1°F26.2°C 73.8°F23.2°C 84% 1.0 mph SE1.6 kmh SE 9.0 mph14.5 kmh 29.89 in1012.2 mb 0.00 in0.0 mm 0.00 in0.0 mm 0.18 in4.6 mm
11:11 PM 79.1°F26.2°C 73.8°F23.2°C 84% 3.0 mph S4.8 kmh S 9.0 mph14.5 kmh 29.89 in1012.2 mb 0.00 in0.0 mm 0.00 in0.0 mm 0.18 in4.6 mm
11:06 PM 79.2°F26.2°C 73.9°F23.3°C 84% 3.0 mph SSE4.8 kmh SSE 6.0 mph9.7 kmh 29.89 in1012.2 mb 0.00 in0.0 mm 0.00 in0.0 mm 0.18 in4.6 mm
11:01 PM 79.3°F26.3°C 74.0°F23.3°C 84% 3.0 mph S4.8 kmh S 6.0 mph9.7 kmh 29.89 in1012.2 mb 0.00 in0.0 mm 0.00 in0.0 mm 0.18 in4.6 mm
10:56 PM 79.4°F26.3°C 73.8°F23.2°C 83% Calm Calm 6.0 mph9.7 kmh 29.90 in1012.5 mb 0.00 in0.0 mm 0.00 in0.0 mm 0.18 in4.6 mm
10:51 PM 79.6°F26.4°C 74.0°F23.3°C 83% 1.0 mph S1.6 kmh S 6.0 mph9.7 kmh 29.90 in1012.5 mb 0.00 in0.0 mm 0.00 in0.0 mm 0.18 in4.6 mm
10:46 PM 79.7°F26.5°C 74.1°F23.4°C 83% 3.0 mph S4.8 kmh S 5.0 mph8.0 kmh 29.89 in1012.2 mb 0.00 in0.0 mm 0.00 in0.0 mm 0.18 in4.6 mm
10:41 PM 79.8°F26.6°C 74.2°F23.4°C 83% 2.0 mph SE3.2 kmh SE 5.0 mph8.0 kmh 29.90 in1012.5 mb 0.00 in0.0 mm 0.00 in0.0 mm 0.18 in4.6 mm
10:36 PM 79.9°F26.6°C 73.9°F23.3°C 82% 2.0 mph S3.2 kmh S 5.0 mph8.0 kmh 29.90 in1012.5 mb 0.00 in0.0 mm 0.00 in0.0 mm 0.18 in4.6 mm
10:31 PM 80.0°F26.7°C 74.0°F23.3°C 82% 2.0 mph S3.2 kmh S 5.0 mph8.0 kmh 29.90 in1012.5 mb 0.00 in0.0 mm 0.00 in0.0 mm 0.18 in4.6 mm
10:26 PM 80.0°F26.7°C 74.0°F23.3°C 82% 1.0 mph S1.6 kmh S 3.0 mph4.8 kmh 29.90 in1012.5 mb 0.00 in0.0 mm 0.00 in0.0 mm 0.18 in4.6 mm
10:21 PM 80.0°F26.7°C 74.0°F23.3°C 82% 1.0 mph S1.6 kmh S 3.0 mph4.8 kmh 29.90 in1012.5 mb 0.00 in0.0 mm 0.00 in0.0 mm 0.18 in4.6 mm
10:16 PM 80.0°F26.7°C 74.0°F23.3°C 82% Calm Calm 5.0 mph8.0 kmh 29.89 in1012.2 mb 0.00 in0.0 mm 0.00 in0.0 mm 0.18 in4.6 mm
10:11 PM 79.9°F26.6°C 73.9°F23.3°C 82% Calm Calm 5.0 mph8.0 kmh 29.89 in1012.2 mb 0.00 in0.0 mm 0.00 in0.0 mm 0.18 in4.6 mm
10:06 PM 80.0°F26.7°C 74.0°F23.3°C 82% 2.0 mph S3.2 kmh S 2.0 mph3.2 kmh 29.89 in1012.2 mb 0.00 in0.0 mm 0.00 in0.0 mm 0.18 in4.6 mm
10:01 PM 80.2°F26.8°C 73.8°F23.2°C 81% Calm Calm 3.0 mph4.8 kmh 29.89 in1012.2 mb 0.00 in0.0 mm 0.00 in0.0 mm 0.18 in4.6 mm
09:56 PM 80.3°F26.8°C 73.9°F23.3°C 81% Calm Calm 2.0 mph3.2 kmh 29.89 in1012.2 mb 0.00 in0.0 mm 0.00 in0.0 mm 0.18 in4.6 mm
09:51 PM 80.4°F26.9°C 73.6°F23.1°C 80% Calm Calm -- 29.89 in1012.2 mb 0.00 in0.0 mm 0.00 in0.0 mm 0.18 in4.6 mm
09:46 PM 80.6°F27.0°C 73.8°F23.2°C 80% Calm Calm 2.0 mph3.2 kmh 29.89 in1012.2 mb 0.00 in0.0 mm 0.00 in0.0 mm 0.18 in4.6 mm
09:41 PM 80.7°F27.1°C 73.6°F23.1°C 79% Calm Calm -- 29.89 in1012.2 mb 0.00 in0.0 mm 0.00 in0.0 mm 0.18 in4.6 mm
09:36 PM 80.8°F27.1°C 73.7°F23.2°C 79% 2.0 mph SE3.2 kmh SE 4.0 mph6.4 kmh 29.89 in1012.2 mb 0.00 in0.0 mm 0.00 in0.0 mm 0.18 in4.6 mm
09:31 PM 81.0°F27.2°C 73.9°F23.3°C 79% 1.0 mph SE1.6 kmh SE 4.0 mph6.4 kmh 29.89 in1012.2 mb 0.00 in0.0 mm 0.00 in0.0 mm 0.18 in4.6 mm
09:26 PM 81.1°F27.3°C 73.9°F23.3°C 79% Calm Calm 4.0 mph6.4 kmh 29.89 in1012.2 mb 0.00 in0.0 mm 0.00 in0.0 mm 0.18 in4.6 mm
09:21 PM 81.3°F27.4°C 73.8°F23.2°C 78% 2.0 mph SSE3.2 kmh SSE 4.0 mph6.4 kmh 29.89 in1012.2 mb 0.00 in0.0 mm 0.00 in0.0 mm 0.18 in4.6 mm
09:16 PM 81.4°F27.4°C 73.9°F23.3°C 78% 2.0 mph SSE3.2 kmh SSE 2.0 mph3.2 kmh 29.89 in1012.2 mb 0.00 in0.0 mm 0.00 in0.0 mm 0.18 in4.6 mm
09:11 PM 81.6°F27.6°C 74.1°F23.4°C 78% Calm Calm 1.0 mph1.6 kmh 29.89 in1012.2 mb 0.00 in0.0 mm 0.00 in0.0 mm 0.18 in4.6 mm
09:06 PM 81.7°F27.6°C 73.8°F23.2°C 77% Calm Calm -- 29.89 in1012.2 mb 0.00 in0.0 mm 0.00 in0.0 mm 0.18 in4.6 mm
09:01 PM 81.8°F27.7°C 73.9°F23.3°C 77% Calm Calm 5.0 mph8.0 kmh 29.89 in1012.2 mb 0.00 in0.0 mm 0.00 in0.0 mm 0.18 in4.6 mm
08:56 PM 81.8°F27.7°C 73.9°F23.3°C 77% 1.0 mph SSW1.6 kmh SSW 5.0 mph8.0 kmh 29.89 in1012.2 mb 0.00 in0.0 mm 0.00 in0.0 mm 0.18 in4.6 mm
08:51 PM 82.0°F27.8°C 74.1°F23.4°C 77% 1.0 mph SSW1.6 kmh SSW 2.0 mph3.2 kmh 29.89 in1012.2 mb 0.00 in0.0 mm 0.00 in0.0 mm 0.18 in4.6 mm
08:46 PM 82.1°F27.8°C 74.2°F23.4°C 77% Calm Calm 5.0 mph8.0 kmh 29.89 in1012.2 mb 0.00 in0.0 mm 0.00 in0.0 mm 0.18 in4.6 mm
08:41 PM 82.4°F28.0°C 74.1°F23.4°C 76% 2.0 mph SSE3.2 kmh SSE 4.0 mph6.4 kmh 29.89 in1012.2 mb 0.00 in0.0 mm 0.00 in0.0 mm 0.18 in4.6 mm
08:36 PM 82.5°F28.1°C 74.1°F23.4°C 76% Calm Calm 4.0 mph6.4 kmh 29.89 in1012.2 mb 0.00 in0.0 mm 0.00 in0.0 mm 0.18 in4.6 mm
08:31 PM 82.7°F28.2°C 73.9°F23.3°C 75% Calm Calm -- 29.89 in1012.2 mb 0.00 in0.0 mm 0.00 in0.0 mm 0.18 in4.6 mm
08:26 PM 82.9°F28.3°C 74.1°F23.4°C 75% Calm Calm 3.0 mph4.8 kmh 29.89 in1012.2 mb 0.00 in0.0 mm 0.00 in0.0 mm 0.18 in4.6 mm
08:21 PM 83.1°F28.4°C 73.9°F23.3°C 74% Calm Calm 4.0 mph6.4 kmh 29.89 in1012.2 mb 0.00 in0.0 mm 0.00 in0.0 mm 0.18 in4.6 mm
08:16 PM 83.3°F28.5°C 74.1°F23.4°C 74% Calm Calm 5.0 mph8.0 kmh 29.89 in1012.2 mb 0.00 in0.0 mm 0.00 in0.0 mm 0.18 in4.6 mm
08:11 PM 83.4°F28.6°C 73.8°F23.2°C 73% 2.0 mph SSW3.2 kmh SSW 5.0 mph8.0 kmh 29.89 in1012.2 mb 0.00 in0.0 mm 0.00 in0.0 mm 0.18 in4.6 mm
08:06 PM 83.6°F28.7°C 74.0°F23.3°C 73% 1.0 mph S1.6 kmh S 4.0 mph6.4 kmh 29.89 in1012.2 mb 0.00 in0.0 mm 0.00 in0.0 mm 0.18 in4.6 mm
08:01 PM 83.8°F28.8°C 74.2°F23.4°C 73% Calm Calm 4.0 mph6.4 kmh 29.88 in1011.9 mb 0.00 in0.0 mm 0.00 in0.0 mm 0.18 in4.6 mm
07:56 PM 84.1°F28.9°C 74.1°F23.4°C 72% Calm Calm 2.0 mph3.2 kmh 29.88 in1011.9 mb 0.00 in0.0 mm 0.00 in0.0 mm 0.18 in4.6 mm
07:51 PM 84.2°F29.0°C 74.2°F23.4°C 72% 1.0 mph SSE1.6 kmh SSE 5.0 mph8.0 kmh 29.88 in1011.9 mb 0.00 in0.0 mm 0.00 in0.0 mm 0.18 in4.6 mm
07:46 PM 84.4°F29.1°C 74.4°F23.6°C 72% 2.0 mph S3.2 kmh S 5.0 mph8.0 kmh 29.88 in1011.9 mb 0.00 in0.0 mm 0.00 in0.0 mm 0.18 in4.6 mm
07:41 PM 84.6°F29.2°C 74.1°F23.4°C 71% 2.0 mph S3.2 kmh S 5.0 mph8.0 kmh 29.88 in1011.9 mb 0.00 in0.0 mm 0.00 in0.0 mm 0.18 in4.6 mm
07:36 PM 84.8°F29.3°C 74.3°F23.5°C 71% 2.0 mph SW3.2 kmh SW 5.0 mph8.0 kmh 29.88 in1011.9 mb 0.00 in0.0 mm 0.00 in0.0 mm 0.18 in4.6 mm
07:31 PM 84.9°F29.4°C 74.0°F23.3°C 70% 1.0 mph S1.6 kmh S 4.0 mph6.4 kmh 29.88 in1011.9 mb 0.00 in0.0 mm 0.00 in0.0 mm 0.18 in4.6 mm
07:26 PM 85.1°F29.5°C 74.2°F23.4°C 70% 1.0 mph SE1.6 kmh SE 4.0 mph6.4 kmh 29.88 in1011.9 mb 0.00 in0.0 mm 0.00 in0.0 mm 0.18 in4.6 mm
07:21 PM 85.3°F29.6°C 74.4°F23.6°C 70% 1.0 mph S1.6 kmh S 6.0 mph9.7 kmh 29.88 in1011.9 mb 0.00 in0.0 mm 0.00 in0.0 mm 0.18 in4.6 mm
07:16 PM 85.5°F29.7°C 74.6°F23.7°C 70% Calm Calm 6.0 mph9.7 kmh 29.88 in1011.9 mb 0.00 in0.0 mm 0.00 in0.0 mm 0.18 in4.6 mm
07:11 PM 85.6°F29.8°C 74.2°F23.4°C 69% 2.0 mph SW3.2 kmh SW 7.0 mph11.3 kmh 29.87 in1011.5 mb 0.00 in0.0 mm 0.00 in0.0 mm 0.18 in4.6 mm
07:06 PM 85.7°F29.8°C 73.9°F23.3°C 68% 4.0 mph SW6.4 kmh SW 7.0 mph11.3 kmh 29.87 in1011.5 mb 0.00 in0.0 mm 0.00 in0.0 mm 0.18 in4.6 mm
07:01 PM 85.8°F29.9°C 74.4°F23.6°C 69% 2.0 mph SE3.2 kmh SE 7.0 mph11.3 kmh 29.87 in1011.5 mb 0.00 in0.0 mm 0.00 in0.0 mm 0.18 in4.6 mm
06:56 PM 85.9°F29.9°C 74.1°F23.4°C 68% 1.0 mph S1.6 kmh S 7.0 mph11.3 kmh 29.87 in1011.5 mb 0.00 in0.0 mm 0.00 in0.0 mm 0.18 in4.6 mm
06:51 PM 86.0°F30.0°C 73.7°F23.2°C 67% Calm Calm 7.0 mph11.3 kmh 29.87 in1011.5 mb 0.00 in0.0 mm 0.00 in0.0 mm 0.18 in4.6 mm
06:46 PM 86.1°F30.1°C 73.8°F23.2°C 67% 1.0 mph WSW1.6 kmh WSW 7.0 mph11.3 kmh 29.87 in1011.5 mb 0.00 in0.0 mm 0.00 in0.0 mm 0.18 in4.6 mm
06:41 PM 86.3°F30.2°C 74.5°F23.6°C 68% 1.0 mph SSW1.6 kmh SSW 7.0 mph11.3 kmh 29.87 in1011.5 mb 0.00 in0.0 mm 0.00 in0.0 mm 0.18 in4.6 mm
06:36 PM 86.4°F30.2°C 74.1°F23.4°C 67% 4.0 mph SW6.4 kmh SW 7.0 mph11.3 kmh 29.87 in1011.5 mb 0.00 in0.0 mm 0.00 in0.0 mm 0.18 in4.6 mm
06:31 PM 86.5°F30.3°C 73.8°F23.2°C 66% 1.0 mph SW1.6 kmh SW 6.0 mph9.7 kmh 29.87 in1011.5 mb 0.00 in0.0 mm 0.00 in0.0 mm 0.18 in4.6 mm
06:26 PM 86.7°F30.4°C 73.9°F23.3°C 66% 3.0 mph SSE4.8 kmh SSE 10.0 mph16.1 kmh 29.87 in1011.5 mb 0.00 in0.0 mm 0.00 in0.0 mm 0.18 in4.6 mm
06:21 PM 86.8°F30.4°C 74.0°F23.3°C 66% 1.0 mph S1.6 kmh S 10.0 mph16.1 kmh 29.87 in1011.5 mb 0.00 in0.0 mm 0.00 in0.0 mm 0.18 in4.6 mm
06:16 PM 86.8°F30.4°C 73.6°F23.1°C 65% 2.0 mph SW3.2 kmh SW 10.0 mph16.1 kmh 29.88 in1011.9 mb 0.00 in0.0 mm 0.00 in0.0 mm 0.18 in4.6 mm
06:11 PM 86.9°F30.5°C 73.7°F23.2°C 65% 4.0 mph W6.4 kmh W 10.0 mph16.1 kmh 29.88 in1011.9 mb 0.00 in0.0 mm 0.00 in0.0 mm 0.18 in4.6 mm
06:06 PM 87.0°F30.6°C 74.7°F23.7°C 67% 2.0 mph S3.2 kmh S 8.0 mph12.9 kmh 29.88 in1011.9 mb 0.00 in0.0 mm 0.00 in0.0 mm 0.18 in4.6 mm
06:01 PM 87.1°F30.6°C 74.3°F23.5°C 66% 5.0 mph SW8.0 kmh SW 8.0 mph12.9 kmh 29.88 in1011.9 mb 0.00 in0.0 mm 0.00 in0.0 mm 0.18 in4.6 mm
05:56 PM 87.2°F30.7°C 74.0°F23.3°C 65% 1.0 mph WSW1.6 kmh WSW 11.0 mph17.7 kmh 29.88 in1011.9 mb 0.00 in0.0 mm 0.00 in0.0 mm 0.18 in4.6 mm
05:51 PM 87.3°F30.7°C 74.5°F23.6°C 66% 3.0 mph SSW4.8 kmh SSW 11.0 mph17.7 kmh 29.88 in1011.9 mb 0.00 in0.0 mm 0.00 in0.0 mm 0.18 in4.6 mm
05:46 PM 87.3°F30.7°C 74.5°F23.6°C 66% 2.0 mph ESE3.2 kmh ESE 11.0 mph17.7 kmh 29.88 in1011.9 mb 0.00 in0.0 mm 0.00 in0.0 mm 0.18 in4.6 mm
05:41 PM 87.3°F30.7°C 73.6°F23.1°C 64% 2.0 mph SE3.2 kmh SE 11.0 mph17.7 kmh 29.88 in1011.9 mb 0.00 in0.0 mm 0.00 in0.0 mm 0.18 in4.6 mm
05:36 PM 87.4°F30.8°C 73.7°F23.2°C 64% 6.0 mph SW9.7 kmh SW 9.0 mph14.5 kmh 29.88 in1011.9 mb 0.00 in0.0 mm 0.00 in0.0 mm 0.18 in4.6 mm
05:31 PM 87.5°F30.8°C 74.3°F23.5°C 65% 2.0 mph SE3.2 kmh SE 6.0 mph9.7 kmh 29.88 in1011.9 mb 0.00 in0.0 mm 0.00 in0.0 mm 0.18 in4.6 mm
05:26 PM 87.4°F30.8°C 75.1°F23.9°C 67% 1.0 mph SW1.6 kmh SW 9.0 mph14.5 kmh 29.88 in1011.9 mb 0.00 in0.0 mm 0.00 in0.0 mm 0.18 in4.6 mm
05:21 PM 87.4°F30.8°C 74.6°F23.7°C 66% 2.0 mph SE3.2 kmh SE 9.0 mph14.5 kmh 29.88 in1011.9 mb 0.00 in0.0 mm 0.00 in0.0 mm 0.18 in4.6 mm
05:16 PM 87.2°F30.7°C 74.4°F23.6°C 66% 3.0 mph SE4.8 kmh SE 9.0 mph14.5 kmh 29.88 in1011.9 mb 0.00 in0.0 mm 0.00 in0.0 mm 0.18 in4.6 mm
05:11 PM 87.2°F30.7°C 74.0°F23.3°C 65% 2.0 mph SSE3.2 kmh SSE 9.0 mph14.5 kmh 29.88 in1011.9 mb 0.00 in0.0 mm 0.00 in0.0 mm 0.18 in4.6 mm
05:06 PM 87.2°F30.7°C 74.0°F23.3°C 65% 2.0 mph S3.2 kmh S 10.0 mph16.1 kmh 29.88 in1011.9 mb 0.00 in0.0 mm 0.00 in0.0 mm 0.18 in4.6 mm
05:01 PM 87.2°F30.7°C 73.5°F23.1°C 64% 6.0 mph S9.7 kmh S 10.0 mph16.1 kmh 29.88 in1011.9 mb 0.00 in0.0 mm 0.00 in0.0 mm 0.18 in4.6 mm
04:56 PM 87.6°F30.9°C 73.4°F23.0°C 63% 5.0 mph S8.0 kmh S 10.0 mph16.1 kmh 29.89 in1012.2 mb 0.00 in0.0 mm 0.00 in0.0 mm 0.18 in4.6 mm
04:51 PM 88.0°F31.1°C 73.8°F23.2°C 63% 3.0 mph SW4.8 kmh SW 10.0 mph16.1 kmh 29.88 in1011.9 mb 0.00 in0.0 mm 0.00 in0.0 mm 0.18 in4.6 mm
04:46 PM 88.1°F31.2°C 73.4°F23.0°C 62% 9.0 mph SW14.5 kmh SW 16.0 mph25.7 kmh 29.88 in1011.9 mb 0.00 in0.0 mm 0.00 in0.0 mm 0.18 in4.6 mm
04:41 PM 88.1°F31.2°C 74.4°F23.6°C 64% 3.0 mph SE4.8 kmh SE 16.0 mph25.7 kmh 29.88 in1011.9 mb 0.00 in0.0 mm 0.00 in0.0 mm 0.18 in4.6 mm
04:36 PM 88.1°F31.2°C 73.4°F23.0°C 62% 1.0 mph SW1.6 kmh SW 16.0 mph25.7 kmh 29.87 in1011.5 mb 0.00 in0.0 mm 0.00 in0.0 mm 0.18 in4.6 mm
04:31 PM 88.1°F31.2°C 74.8°F23.8°C 65% 2.0 mph S3.2 kmh S 16.0 mph25.7 kmh 29.87 in1011.5 mb 0.00 in0.0 mm 0.00 in0.0 mm 0.18 in4.6 mm
04:26 PM 88.1°F31.2°C 74.8°F23.8°C 65% 2.0 mph SW3.2 kmh SW 13.0 mph20.9 kmh 29.87 in1011.5 mb 0.00 in0.0 mm 0.00 in0.0 mm 0.18 in4.6 mm
04:21 PM 88.3°F31.3°C 75.0°F23.9°C 65% 4.0 mph SSW6.4 kmh SSW 13.0 mph20.9 kmh 29.87 in1011.5 mb 0.00 in0.0 mm 0.00 in0.0 mm 0.18 in4.6 mm
04:16 PM 88.2°F31.2°C 74.4°F23.6°C 64% 7.0 mph SSE11.3 kmh SSE 13.0 mph20.9 kmh 29.87 in1011.5 mb 0.00 in0.0 mm 0.00 in0.0 mm 0.18 in4.6 mm
04:11 PM 88.3°F31.3°C 74.1°F23.4°C 63% 4.0 mph NNE6.4 kmh NNE 13.0 mph20.9 kmh 29.88 in1011.9 mb 0.00 in0.0 mm 0.00 in0.0 mm 0.18 in4.6 mm
04:06 PM 88.6°F31.4°C 74.4°F23.6°C 63% 8.0 mph SSE12.9 kmh SSE 11.0 mph17.7 kmh 29.88 in1011.9 mb 0.00 in0.0 mm 0.00 in0.0 mm 0.18 in4.6 mm
04:01 PM 88.6°F31.4°C 75.3°F24.1°C 65% 8.0 mph SSE12.9 kmh SSE 15.0 mph24.1 kmh 29.88 in1011.9 mb 0.00 in0.0 mm 0.00 in0.0 mm 0.18 in4.6 mm
03:56 PM 88.6°F31.4°C 74.8°F23.8°C 64% 2.0 mph S3.2 kmh S 15.0 mph24.1 kmh 29.88 in1011.9 mb 0.00 in0.0 mm 0.00 in0.0 mm 0.18 in4.6 mm
03:51 PM 88.5°F31.4°C 74.7°F23.7°C 64% 3.0 mph SE4.8 kmh SE 15.0 mph24.1 kmh 29.87 in1011.5 mb 0.00 in0.0 mm 0.00 in0.0 mm 0.18 in4.6 mm
03:46 PM 88.3°F31.3°C 74.1°F23.4°C 63% 10.0 mph SE16.1 kmh SE 15.0 mph24.1 kmh 29.87 in1011.5 mb 0.00 in0.0 mm 0.00 in0.0 mm 0.18 in4.6 mm
03:41 PM 88.1°F31.2°C 74.8°F23.8°C 65% 9.0 mph SSE14.5 kmh SSE 16.0 mph25.7 kmh 29.87 in1011.5 mb 0.00 in0.0 mm 0.00 in0.0 mm 0.18 in4.6 mm
03:36 PM 87.7°F30.9°C 74.4°F23.6°C 65% 3.0 mph SW4.8 kmh SW 16.0 mph25.7 kmh 29.87 in1011.5 mb 0.00 in0.0 mm 0.00 in0.0 mm 0.18 in4.6 mm
03:31 PM 87.7°F30.9°C 74.0°F23.3°C 64% 5.0 mph S8.0 kmh S 16.0 mph25.7 kmh 29.86 in1011.2 mb 0.00 in0.0 mm 0.00 in0.0 mm 0.18 in4.6 mm
03:26 PM 88.0°F31.1°C 74.7°F23.7°C 65% 7.0 mph SE11.3 kmh SE 16.0 mph25.7 kmh 29.86 in1011.2 mb 0.00 in0.0 mm 0.00 in0.0 mm 0.18 in4.6 mm
03:21 PM 88.6°F31.4°C 75.3°F24.1°C 65% 1.0 mph W1.6 kmh W 11.0 mph17.7 kmh 29.87 in1011.5 mb 0.00 in0.0 mm 0.00 in0.0 mm 0.18 in4.6 mm
03:16 PM 88.4°F31.3°C 75.1°F23.9°C 65% 2.0 mph S3.2 kmh S 10.0 mph16.1 kmh 29.87 in1011.5 mb 0.00 in0.0 mm 0.00 in0.0 mm 0.18 in4.6 mm
03:11 PM 88.0°F31.1°C 76.1°F24.5°C 68% 3.0 mph W4.8 kmh W 10.0 mph16.1 kmh 29.87 in1011.5 mb 0.00 in0.0 mm 0.00 in0.0 mm 0.18 in4.6 mm
03:06 PM 87.5°F30.8°C 75.2°F24.0°C 67% 3.0 mph SE4.8 kmh SE 10.0 mph16.1 kmh 29.87 in1011.5 mb 0.00 in0.0 mm 0.00 in0.0 mm 0.18 in4.6 mm
03:01 PM 87.2°F30.7°C 74.0°F23.3°C 65% 3.0 mph S4.8 kmh S 10.0 mph16.1 kmh 29.88 in1011.9 mb 0.00 in0.0 mm 0.00 in0.0 mm 0.18 in4.6 mm
02:56 PM 87.1°F30.6°C 73.9°F23.3°C 65% 4.0 mph SE6.4 kmh SE 10.0 mph16.1 kmh 29.88 in1011.9 mb 0.00 in0.0 mm 0.00 in0.0 mm 0.18 in4.6 mm
02:51 PM 87.1°F30.6°C 73.9°F23.3°C 65% 3.0 mph SE4.8 kmh SE 10.0 mph16.1 kmh 29.88 in1011.9 mb 0.00 in0.0 mm 0.00 in0.0 mm 0.18 in4.6 mm
02:46 PM 87.4°F30.8°C 74.2°F23.4°C 65% 2.0 mph SSW3.2 kmh SSW 10.0 mph16.1 kmh 29.88 in1011.9 mb 0.00 in0.0 mm 0.00 in0.0 mm 0.18 in4.6 mm
02:41 PM 87.5°F30.8°C 74.7°F23.7°C 66% 4.0 mph S6.4 kmh S 11.0 mph17.7 kmh 29.87 in1011.5 mb 0.00 in0.0 mm 0.00 in0.0 mm 0.18 in4.6 mm
02:36 PM 87.4°F30.8°C 74.2°F23.4°C 65% 7.0 mph SE11.3 kmh SE 11.0 mph17.7 kmh 29.87 in1011.5 mb 0.00 in0.0 mm 0.00 in0.0 mm 0.18 in4.6 mm
02:31 PM 87.2°F30.7°C 74.4°F23.6°C 66% 6.0 mph SSE9.7 kmh SSE 11.0 mph17.7 kmh 29.87 in1011.5 mb 0.00 in0.0 mm 0.00 in0.0 mm 0.18 in4.6 mm
02:26 PM 87.1°F30.6°C 73.9°F23.3°C 65% 5.0 mph S8.0 kmh S 11.0 mph17.7 kmh 29.87 in1011.5 mb 0.00 in0.0 mm 0.00 in0.0 mm 0.18 in4.6 mm
02:21 PM 87.4°F30.8°C 73.7°F23.2°C 64% 7.0 mph SSW11.3 kmh SSW 10.0 mph16.1 kmh 29.86 in1011.2 mb 0.00 in0.0 mm 0.00 in0.0 mm 0.18 in4.6 mm
02:16 PM 87.5°F30.8°C 74.3°F23.5°C 65% 2.0 mph SSE3.2 kmh SSE 10.0 mph16.1 kmh 29.87 in1011.5 mb 0.00 in0.0 mm 0.00 in0.0 mm 0.18 in4.6 mm
02:11 PM 87.6°F30.9°C 73.9°F23.3°C 64% 3.0 mph SE4.8 kmh SE 9.0 mph14.5 kmh 29.88 in1011.9 mb 0.00 in0.0 mm 0.00 in0.0 mm 0.18 in4.6 mm
02:06 PM 87.7°F30.9°C 74.4°F23.6°C 65% 3.0 mph ESE4.8 kmh ESE 9.0 mph14.5 kmh 29.88 in1011.9 mb 0.00 in0.0 mm 0.00 in0.0 mm 0.18 in4.6 mm
02:01 PM 87.7°F30.9°C 74.4°F23.6°C 65% 2.0 mph ESE3.2 kmh ESE 8.0 mph12.9 kmh 29.89 in1012.2 mb 0.00 in0.0 mm 0.00 in0.0 mm 0.18 in4.6 mm
01:56 PM 87.9°F31.1°C 74.2°F23.4°C 64% 5.0 mph NW8.0 kmh NW 10.0 mph16.1 kmh 29.89 in1012.2 mb 0.00 in0.0 mm 0.00 in0.0 mm 0.18 in4.6 mm
01:51 PM 88.1°F31.2°C 73.9°F23.3°C 63% 2.0 mph WNW3.2 kmh WNW 10.0 mph16.1 kmh 29.89 in1012.2 mb 0.00 in0.0 mm 0.00 in0.0 mm 0.18 in4.6 mm
01:46 PM 88.2°F31.2°C 74.4°F23.6°C 64% 2.0 mph SSE3.2 kmh SSE 13.0 mph20.9 kmh 29.90 in1012.5 mb 0.00 in0.0 mm 0.00 in0.0 mm 0.18 in4.6 mm
01:41 PM 88.1°F31.2°C 72.9°F22.7°C 61% 7.0 mph W11.3 kmh W 13.0 mph20.9 kmh 29.90 in1012.5 mb 0.00 in0.0 mm 0.00 in0.0 mm 0.18 in4.6 mm
01:36 PM 87.9°F31.1°C 73.2°F22.9°C 62% 3.0 mph NW4.8 kmh NW 13.0 mph20.9 kmh 29.90 in1012.5 mb 0.00 in0.0 mm 0.00 in0.0 mm 0.18 in4.6 mm
01:31 PM 87.4°F30.8°C 75.1°F23.9°C 67% 6.0 mph S9.7 kmh S 13.0 mph20.9 kmh 29.90 in1012.5 mb 0.00 in0.0 mm 0.00 in0.0 mm 0.18 in4.6 mm
01:26 PM 87.2°F30.7°C 74.9°F23.8°C 67% 3.0 mph SSW4.8 kmh SSW 11.0 mph17.7 kmh 29.91 in1012.9 mb 0.00 in0.0 mm 0.00 in0.0 mm 0.18 in4.6 mm
01:21 PM 87.4°F30.8°C 74.2°F23.4°C 65% 2.0 mph W3.2 kmh W 11.0 mph17.7 kmh 29.91 in1012.9 mb 0.00 in0.0 mm 0.00 in0.0 mm 0.18 in4.6 mm
01:16 PM 87.5°F30.8°C 74.3°F23.5°C 65% 2.0 mph NW3.2 kmh NW 15.0 mph24.1 kmh 29.91 in1012.9 mb 0.00 in0.0 mm 0.00 in0.0 mm 0.18 in4.6 mm
01:11 PM 87.4°F30.8°C 74.2°F23.4°C 65% 2.0 mph SW3.2 kmh SW 15.0 mph24.1 kmh 29.92 in1013.2 mb 0.00 in0.0 mm 0.00 in0.0 mm 0.18 in4.6 mm
01:06 PM 87.5°F30.8°C 74.7°F23.7°C 66% 2.0 mph NNE3.2 kmh NNE 15.0 mph24.1 kmh 29.92 in1013.2 mb 0.00 in0.0 mm 0.00 in0.0 mm 0.18 in4.6 mm
01:01 PM 87.3°F30.7°C 75.4°F24.1°C 68% 4.0 mph NW6.4 kmh NW 15.0 mph24.1 kmh 29.92 in1013.2 mb 0.00 in0.0 mm 0.00 in0.0 mm 0.18 in4.6 mm
12:56 PM 87.1°F30.6°C 74.8°F23.8°C 67% 3.0 mph S4.8 kmh S 12.0 mph19.3 kmh 29.93 in1013.5 mb 0.00 in0.0 mm 0.00 in0.0 mm 0.18 in4.6 mm
12:51 PM 86.9°F30.5°C 74.6°F23.7°C 67% 1.0 mph SSW1.6 kmh SSW 12.0 mph19.3 kmh 29.93 in1013.5 mb 0.00 in0.0 mm 0.00 in0.0 mm 0.18 in4.6 mm
12:46 PM 86.8°F30.4°C 74.0°F23.3°C 66% 4.0 mph SW6.4 kmh SW 12.0 mph19.3 kmh 29.93 in1013.5 mb 0.00 in0.0 mm 0.00 in0.0 mm 0.18 in4.6 mm
12:41 PM 86.8°F30.4°C 74.0°F23.3°C 66% 2.0 mph S3.2 kmh S 12.0 mph19.3 kmh 29.93 in1013.5 mb 0.00 in0.0 mm 0.00 in0.0 mm 0.18 in4.6 mm
12:36 PM 86.9°F30.5°C 74.1°F23.4°C 66% 3.0 mph W4.8 kmh W 10.0 mph16.1 kmh 29.93 in1013.5 mb 0.00 in0.0 mm 0.00 in0.0 mm 0.18 in4.6 mm
12:31 PM 86.7°F30.4°C 74.8°F23.8°C 68% 3.0 mph WNW4.8 kmh WNW 10.0 mph16.1 kmh 29.93 in1013.5 mb 0.00 in0.0 mm 0.00 in0.0 mm 0.18 in4.6 mm
12:26 PM 86.4°F30.2°C 74.6°F23.7°C 68% 1.0 mph W1.6 kmh W 9.0 mph14.5 kmh 29.93 in1013.5 mb 0.00 in0.0 mm 0.00 in0.0 mm 0.18 in4.6 mm
12:21 PM 86.4°F30.2°C 74.6°F23.7°C 68% 3.0 mph WNW4.8 kmh WNW 12.0 mph19.3 kmh 29.93 in1013.5 mb 0.00 in0.0 mm 0.00 in0.0 mm 0.18 in4.6 mm
12:16 PM 86.1°F30.1°C 74.7°F23.7°C 69% 2.0 mph WNW3.2 kmh WNW 12.0 mph19.3 kmh 29.94 in1013.9 mb 0.00 in0.0 mm 0.00 in0.0 mm 0.18 in4.6 mm
12:11 PM 85.6°F29.8°C 74.7°F23.7°C 70% 3.0 mph WNW4.8 kmh WNW 12.0 mph19.3 kmh 29.94 in1013.9 mb 0.00 in0.0 mm 0.00 in0.0 mm 0.18 in4.6 mm
12:06 PM 85.3°F29.6°C 75.2°F24.0°C 72% 1.0 mph W1.6 kmh W 12.0 mph19.3 kmh 29.94 in1013.9 mb 0.00 in0.0 mm 0.00 in0.0 mm 0.18 in4.6 mm
12:01 PM 85.2°F29.6°C 74.7°F23.7°C 71% 2.0 mph SW3.2 kmh SW 11.0 mph17.7 kmh 29.94 in1013.9 mb 0.00 in0.0 mm 0.00 in0.0 mm 0.18 in4.6 mm
11:56 AM 85.4°F29.7°C 74.5°F23.6°C 70% 3.0 mph W4.8 kmh W 13.0 mph20.9 kmh 29.94 in1013.9 mb 0.00 in0.0 mm 0.00 in0.0 mm 0.18 in4.6 mm
11:51 AM 85.4°F29.7°C 75.3°F24.1°C 72% 3.0 mph NNW4.8 kmh NNW 13.0 mph20.9 kmh 29.94 in1013.9 mb 0.00 in0.0 mm 0.00 in0.0 mm 0.18 in4.6 mm
11:46 AM 85.4°F29.7°C 75.3°F24.1°C 72% 6.0 mph SSW9.7 kmh SSW 13.0 mph20.9 kmh 29.94 in1013.9 mb 0.00 in0.0 mm 0.00 in0.0 mm 0.18 in4.6 mm
11:41 AM 85.2°F29.6°C 75.1°F23.9°C 72% 2.0 mph NW3.2 kmh NW 13.0 mph20.9 kmh 29.94 in1013.9 mb 0.00 in0.0 mm 0.00 in0.0 mm 0.18 in4.6 mm
11:36 AM 85.0°F29.4°C 75.3°F24.1°C 73% 3.0 mph W4.8 kmh W 12.0 mph19.3 kmh 29.95 in1014.2 mb 0.00 in0.0 mm 0.00 in0.0 mm 0.18 in4.6 mm
11:31 AM 84.9°F29.4°C 74.8°F23.8°C 72% 1.0 mph NE1.6 kmh NE 12.0 mph19.3 kmh 29.95 in1014.2 mb 0.00 in0.0 mm 0.00 in0.0 mm 0.18 in4.6 mm
11:26 AM 85.0°F29.4°C 74.1°F23.4°C 70% 4.0 mph W6.4 kmh W 12.0 mph19.3 kmh 29.94 in1013.9 mb 0.00 in0.0 mm 0.00 in0.0 mm 0.18 in4.6 mm
11:21 AM 85.0°F29.4°C 74.5°F23.6°C 71% 4.0 mph WNW6.4 kmh WNW 12.0 mph19.3 kmh 29.94 in1013.9 mb 0.00 in0.0 mm 0.00 in0.0 mm 0.18 in4.6 mm
11:16 AM 85.0°F29.4°C 74.9°F23.8°C 72% 5.0 mph WNW8.0 kmh WNW 10.0 mph16.1 kmh 29.93 in1013.5 mb 0.00 in0.0 mm 0.00 in0.0 mm 0.18 in4.6 mm
11:11 AM 84.8°F29.3°C 74.7°F23.7°C 72% 7.0 mph S11.3 kmh S 9.0 mph14.5 kmh 29.93 in1013.5 mb 0.00 in0.0 mm 0.00 in0.0 mm 0.18 in4.6 mm
11:06 AM 84.4°F29.1°C 74.4°F23.6°C 72% 3.0 mph E4.8 kmh E 11.0 mph17.7 kmh 29.93 in1013.5 mb 0.00 in0.0 mm 0.00 in0.0 mm 0.18 in4.6 mm
11:01 AM 83.9°F28.8°C 75.1°F23.9°C 75% 1.0 mph WNW1.6 kmh WNW 11.0 mph17.7 kmh 29.93 in1013.5 mb 0.00 in0.0 mm 0.00 in0.0 mm 0.18 in4.6 mm
10:56 AM 83.6°F28.7°C 74.8°F23.8°C 75% 2.0 mph NW3.2 kmh NW 11.0 mph17.7 kmh 29.92 in1013.2 mb 0.00 in0.0 mm 0.00 in0.0 mm 0.18 in4.6 mm
10:51 AM 83.3°F28.5°C 74.1°F23.4°C 74% 1.0 mph S1.6 kmh S 11.0 mph17.7 kmh 29.92 in1013.2 mb 0.00 in0.0 mm 0.00 in0.0 mm 0.18 in4.6 mm
10:46 AM 83.1°F28.4°C 73.9°F23.3°C 74% 7.0 mph ESE11.3 kmh ESE 9.0 mph14.5 kmh 29.91 in1012.9 mb 0.00 in0.0 mm 0.00 in0.0 mm 0.18 in4.6 mm
10:41 AM 82.8°F28.2°C 73.6°F23.1°C 74% 2.0 mph S3.2 kmh S 9.0 mph14.5 kmh 29.91 in1012.9 mb 0.00 in0.0 mm 0.00 in0.0 mm 0.18 in4.6 mm
10:36 AM 82.5°F28.1°C 74.1°F23.4°C 76% 2.0 mph S3.2 kmh S 9.0 mph14.5 kmh 29.91 in1012.9 mb 0.00 in0.0 mm 0.00 in0.0 mm 0.18 in4.6 mm
10:31 AM 82.1°F27.8°C 74.2°F23.4°C 77% 4.0 mph S6.4 kmh S 8.0 mph12.9 kmh 29.91 in1012.9 mb 0.00 in0.0 mm 0.00 in0.0 mm 0.18 in4.6 mm
10:26 AM 81.8°F27.7°C 73.9°F23.3°C 77% 2.0 mph SSE3.2 kmh SSE 5.0 mph8.0 kmh 29.91 in1012.9 mb 0.00 in0.0 mm 0.00 in0.0 mm 0.18 in4.6 mm
10:21 AM 81.7°F27.6°C 73.8°F23.2°C 77% 2.0 mph SE3.2 kmh SE 6.0 mph9.7 kmh 29.91 in1012.9 mb 0.00 in0.0 mm 0.00 in0.0 mm 0.18 in4.6 mm
10:16 AM 81.6°F27.6°C 74.1°F23.4°C 78% 4.0 mph SSE6.4 kmh SSE 6.0 mph9.7 kmh 29.91 in1012.9 mb 0.00 in0.0 mm 0.00 in0.0 mm 0.18 in4.6 mm
10:11 AM 81.2°F27.3°C 74.0°F23.3°C 79% 3.0 mph SE4.8 kmh SE 6.0 mph9.7 kmh 29.91 in1012.9 mb 0.00 in0.0 mm 0.00 in0.0 mm 0.18 in4.6 mm
10:06 AM 80.6°F27.0°C 73.5°F23.1°C 79% 2.0 mph SE3.2 kmh SE 6.0 mph9.7 kmh 29.91 in1012.9 mb 0.00 in0.0 mm 0.00 in0.0 mm 0.18 in4.6 mm
10:01 AM 79.9°F26.6°C 73.5°F23.1°C 81% 3.0 mph SE4.8 kmh SE 5.0 mph8.0 kmh 29.91 in1012.9 mb 0.00 in0.0 mm 0.00 in0.0 mm 0.18 in4.6 mm
09:56 AM 79.2°F26.2°C 73.2°F22.9°C 82% 2.0 mph S3.2 kmh S 5.0 mph8.0 kmh 29.91 in1012.9 mb 0.00 in0.0 mm 0.00 in0.0 mm 0.18 in4.6 mm
09:51 AM 78.3°F25.7°C 72.7°F22.6°C 83% 1.0 mph SE1.6 kmh SE 5.0 mph8.0 kmh 29.91 in1012.9 mb 0.00 in0.0 mm 0.00 in0.0 mm 0.18 in4.6 mm
09:46 AM 77.5°F25.3°C 73.0°F22.8°C 86% 2.0 mph SE3.2 kmh SE 5.0 mph8.0 kmh 29.91 in1012.9 mb 0.00 in0.0 mm 0.00 in0.0 mm 0.18 in4.6 mm
09:41 AM 76.9°F24.9°C 72.4°F22.4°C 86% 1.0 mph S1.6 kmh S 4.0 mph6.4 kmh 29.91 in1012.9 mb 0.00 in0.0 mm 0.00 in0.0 mm 0.18 in4.6 mm
09:36 AM 76.1°F24.5°C 71.9°F22.2°C 87% 4.0 mph SSE6.4 kmh SSE 5.0 mph8.0 kmh 29.91 in1012.9 mb 0.00 in0.0 mm 0.00 in0.0 mm 0.18 in4.6 mm
09:31 AM 75.3°F24.1°C 71.5°F21.9°C 88% 2.0 mph SE3.2 kmh SE 5.0 mph8.0 kmh 29.91 in1012.9 mb 0.00 in0.0 mm 0.00 in0.0 mm 0.18 in4.6 mm
09:26 AM 74.6°F23.7°C 70.8°F21.6°C 88% 4.0 mph SE6.4 kmh SE 5.0 mph8.0 kmh 29.91 in1012.9 mb 0.00 in0.0 mm 0.00 in0.0 mm 0.18 in4.6 mm
09:21 AM 74.0°F23.3°C 70.9°F21.6°C 90% 1.0 mph S1.6 kmh S 5.0 mph8.0 kmh 29.91 in1012.9 mb 0.00 in0.0 mm 0.00 in0.0 mm 0.18 in4.6 mm
09:16 AM 73.4°F23.0°C 70.6°F21.4°C 91% 1.0 mph S1.6 kmh S 4.0 mph6.4 kmh 29.92 in1013.2 mb 0.00 in0.0 mm 0.00 in0.0 mm 0.18 in4.6 mm
09:11 AM 72.9°F22.7°C 70.4°F21.3°C 92% 1.0 mph SE1.6 kmh SE 4.0 mph6.4 kmh 29.92 in1013.2 mb 0.00 in0.0 mm 0.00 in0.0 mm 0.18 in4.6 mm
09:06 AM 72.3°F22.4°C 69.8°F21.0°C 92% 3.0 mph SE4.8 kmh SE 3.0 mph4.8 kmh 29.92 in1013.2 mb 0.00 in0.0 mm 0.00 in0.0 mm 0.18 in4.6 mm
09:01 AM 71.8°F22.1°C 69.3°F20.7°C 92% 2.0 mph NE3.2 kmh NE 3.0 mph4.8 kmh 29.92 in1013.2 mb 0.00 in0.0 mm 0.00 in0.0 mm 0.18 in4.6 mm
08:56 AM 71.4°F21.9°C 69.3°F20.7°C 93% Calm Calm 2.0 mph3.2 kmh 29.92 in1013.2 mb 0.00 in0.0 mm 0.00 in0.0 mm 0.18 in4.6 mm
08:51 AM 71.0°F21.7°C 68.9°F20.5°C 93% 2.0 mph NE3.2 kmh NE 5.0 mph8.0 kmh 29.92 in1013.2 mb 0.00 in0.0 mm 0.00 in0.0 mm 0.18 in4.6 mm
08:46 AM 70.8°F21.6°C 68.7°F20.4°C 93% Calm Calm 5.0 mph8.0 kmh 29.93 in1013.5 mb 0.00 in0.0 mm 0.00 in0.0 mm 0.18 in4.6 mm
08:41 AM 70.6°F21.4°C 68.5°F20.3°C 93% 2.0 mph ENE3.2 kmh ENE 5.0 mph8.0 kmh 29.93 in1013.5 mb 0.00 in0.0 mm 0.00 in0.0 mm 0.18 in4.6 mm
08:36 AM 70.5°F21.4°C 68.7°F20.4°C 94% Calm Calm 3.0 mph4.8 kmh 29.93 in1013.5 mb 0.00 in0.0 mm 0.00 in0.0 mm 0.18 in4.6 mm
08:31 AM 70.2°F21.2°C 68.4°F20.2°C 94% 1.0 mph NNE1.6 kmh NNE 3.0 mph4.8 kmh 29.92 in1013.2 mb 0.00 in0.0 mm 0.00 in0.0 mm 0.18 in4.6 mm
08:26 AM 70.0°F21.1°C 67.9°F19.9°C 93% Calm Calm 3.0 mph4.8 kmh 29.92 in1013.2 mb 0.00 in0.0 mm 0.00 in0.0 mm 0.18 in4.6 mm
08:21 AM 69.9°F21.1°C 67.8°F19.9°C 93% Calm Calm 2.0 mph3.2 kmh 29.92 in1013.2 mb 0.00 in0.0 mm 0.00 in0.0 mm 0.18 in4.6 mm
08:16 AM 69.6°F20.9°C 67.5°F19.7°C 93% 1.0 mph NNE1.6 kmh NNE 2.0 mph3.2 kmh 29.92 in1013.2 mb 0.00 in0.0 mm 0.00 in0.0 mm 0.18 in4.6 mm
08:11 AM 69.5°F20.8°C 67.4°F19.7°C 93% 1.0 mph NNE1.6 kmh NNE 2.0 mph3.2 kmh 29.92 in1013.2 mb 0.00 in0.0 mm 0.00 in0.0 mm 0.18 in4.6 mm
08:06 AM 69.4°F20.8°C 67.3°F19.6°C 93% Calm Calm 1.0 mph1.6 kmh 29.92 in1013.2 mb 0.00 in0.0 mm 0.00 in0.0 mm 0.18 in4.6 mm
08:01 AM 69.4°F20.8°C 67.0°F19.4°C 92% 2.0 mph N3.2 kmh N 2.0 mph3.2 kmh 29.92 in1013.2 mb 0.00 in0.0 mm 0.00 in0.0 mm 0.18 in4.6 mm
07:56 AM 69.4°F20.8°C 67.0°F19.4°C 92% Calm Calm 6.0 mph9.7 kmh 29.92 in1013.2 mb 0.00 in0.0 mm 0.00 in0.0 mm 0.18 in4.6 mm
07:51 AM 69.5°F20.8°C 66.8°F19.3°C 91% Calm Calm 6.0 mph9.7 kmh 29.92 in1013.2 mb 0.05 in1.3 mm 0.00 in0.0 mm 0.18 in4.6 mm
07:46 AM 69.8°F21.0°C 67.0°F19.4°C 91% 3.0 mph NE4.8 kmh NE 9.0 mph14.5 kmh 29.92 in1013.2 mb 0.07 in1.8 mm 0.00 in0.0 mm 0.18 in4.6 mm
07:41 AM 70.2°F21.2°C 67.1°F19.5°C 90% 3.0 mph N4.8 kmh N 9.0 mph14.5 kmh 29.92 in1013.2 mb 0.19 in4.8 mm 2.28 in57.9 mm 0.18 in4.6 mm
07:36 AM 70.6°F21.4°C 67.8°F19.9°C 91% 5.0 mph NNE8.0 kmh NNE 9.0 mph14.5 kmh 29.93 in1013.5 mb 0.00 in0.0 mm 0.00 in0.0 mm 0.16 in4.1 mm
07:31 AM 71.0°F21.7°C 68.2°F20.1°C 91% 5.0 mph N8.0 kmh N 9.0 mph14.5 kmh 29.93 in1013.5 mb 0.00 in0.0 mm 0.00 in0.0 mm 0.16 in4.1 mm
07:26 AM 71.7°F22.1°C 69.2°F20.7°C 92% 4.0 mph N6.4 kmh N 8.0 mph12.9 kmh 29.94 in1013.9 mb 0.00 in0.0 mm 0.00 in0.0 mm 0.16 in4.1 mm
07:21 AM 72.3°F22.4°C 69.8°F21.0°C 92% 4.0 mph NNW6.4 kmh NNW 8.0 mph12.9 kmh 29.93 in1013.5 mb 0.00 in0.0 mm 0.00 in0.0 mm 0.16 in4.1 mm
07:16 AM 73.1°F22.8°C 70.9°F21.6°C 93% 2.0 mph N3.2 kmh N 8.0 mph12.9 kmh 29.93 in1013.5 mb 0.00 in0.0 mm 0.00 in0.0 mm 0.16 in4.1 mm
07:11 AM 73.9°F23.3°C 72.1°F22.3°C 94% 3.0 mph W4.8 kmh W 8.0 mph12.9 kmh 29.92 in1013.2 mb 0.00 in0.0 mm 0.00 in0.0 mm 0.16 in4.1 mm
07:06 AM 74.1°F23.4°C 72.3°F22.4°C 94% 2.0 mph WNW3.2 kmh WNW 5.0 mph8.0 kmh 29.91 in1012.9 mb 0.00 in0.0 mm 0.00 in0.0 mm 0.16 in4.1 mm
07:01 AM 74.2°F23.4°C 72.4°F22.4°C 94% Calm Calm -- 29.90 in1012.5 mb 0.00 in0.0 mm 0.00 in0.0 mm 0.16 in4.1 mm
06:56 AM 74.1°F23.4°C 72.3°F22.4°C 94% Calm Calm -- 29.88 in1011.9 mb 0.00 in0.0 mm 0.00 in0.0 mm 0.16 in4.1 mm
06:51 AM 74.0°F23.3°C 72.2°F22.3°C 94% Calm Calm -- 29.88 in1011.9 mb 0.00 in0.0 mm 0.00 in0.0 mm 0.16 in4.1 mm
06:46 AM 74.0°F23.3°C 72.2°F22.3°C 94% Calm Calm -- 29.88 in1011.9 mb 0.00 in0.0 mm 0.00 in0.0 mm 0.16 in4.1 mm
06:41 AM 73.9°F23.3°C 72.1°F22.3°C 94% Calm Calm -- 29.87 in1011.5 mb 0.00 in0.0 mm 0.00 in0.0 mm 0.16 in4.1 mm
06:36 AM 73.8°F23.2°C 72.0°F22.2°C 94% 1.0 mph SE1.6 kmh SE 2.0 mph3.2 kmh 29.87 in1011.5 mb 0.00 in0.0 mm 0.00 in0.0 mm 0.16 in4.1 mm
06:31 AM 73.7°F23.2°C 71.9°F22.2°C 94% Calm Calm 1.0 mph1.6 kmh 29.88 in1011.9 mb 0.04 in1.0 mm 0.00 in0.0 mm 0.16 in4.1 mm
06:26 AM 73.6°F23.1°C 71.8°F22.1°C 94% Calm Calm 1.0 mph1.6 kmh 29.88 in1011.9 mb 0.06 in1.5 mm 0.00 in0.0 mm 0.16 in4.1 mm
06:21 AM 73.5°F23.1°C 71.7°F22.1°C 94% 1.0 mph SE1.6 kmh SE 3.0 mph4.8 kmh 29.88 in1011.9 mb 0.07 in1.8 mm 0.12 in3.0 mm 0.16 in4.1 mm
06:16 AM 73.5°F23.1°C 71.7°F22.1°C 94% 2.0 mph SE3.2 kmh SE 3.0 mph4.8 kmh 29.87 in1011.5 mb 0.06 in1.5 mm 0.00 in0.0 mm 0.15 in3.8 mm
06:11 AM 73.5°F23.1°C 71.7°F22.1°C 94% 1.0 mph SE1.6 kmh SE 3.0 mph4.8 kmh 29.88 in1011.9 mb 0.06 in1.5 mm 0.00 in0.0 mm 0.15 in3.8 mm
06:06 AM 73.4°F23.0°C 71.2°F21.8°C 93% 1.0 mph SE1.6 kmh SE 3.0 mph4.8 kmh 29.88 in1011.9 mb 0.07 in1.8 mm 0.00 in0.0 mm 0.14 in3.6 mm
06:01 AM 73.4°F23.0°C 71.2°F21.8°C 93% Calm Calm 3.0 mph4.8 kmh 29.89 in1012.2 mb 0.17 in4.3 mm 0.00 in0.0 mm 0.14 in3.6 mm
05:56 AM 73.4°F23.0°C 71.2°F21.8°C 93% Calm Calm -- 29.89 in1012.2 mb 1.14 in29.0 mm 12.12 in307.8 mm 0.12 in3.0 mm
05:51 AM 73.5°F23.1°C 71.0°F21.7°C 92% Calm Calm -- 29.89 in1012.2 mb 0.13 in3.3 mm 0.48 in12.2 mm 0.08 in2.0 mm
05:46 AM 73.7°F23.2°C 71.2°F21.8°C 92% 1.0 mph NNW1.6 kmh NNW 2.0 mph3.2 kmh 29.89 in1012.2 mb 0.09 in2.3 mm 0.00 in0.0 mm 0.07 in1.8 mm
05:41 AM 73.8°F23.2°C 71.3°F21.8°C 92% Calm Calm -- 29.89 in1012.2 mb 0.09 in2.3 mm 0.00 in0.0 mm 0.06 in1.5 mm
05:36 AM 74.0°F23.3°C 71.2°F21.8°C 91% Calm Calm -- 29.89 in1012.2 mb 0.09 in2.3 mm 0.24 in6.1 mm 0.05 in1.3 mm
05:31 AM 74.2°F23.4°C 71.4°F21.9°C 91% Calm Calm -- 29.89 in1012.2 mb 0.07 in1.8 mm 0.00 in0.0 mm 0.05 in1.3 mm
05:26 AM 74.5°F23.6°C 71.4°F21.9°C 90% Calm Calm -- 29.89 in1012.2 mb 0.07 in1.8 mm 0.00 in0.0 mm 0.04 in1.0 mm
05:21 AM 74.7°F23.7°C 71.6°F22.0°C 90% Calm Calm 7.0 mph11.3 kmh 29.88 in1011.9 mb 0.07 in1.8 mm 0.84 in21.3 mm 0.04 in1.0 mm
05:16 AM 75.1°F23.9°C 72.0°F22.2°C 90% 2.0 mph NNW3.2 kmh NNW 7.0 mph11.3 kmh 29.89 in1012.2 mb 0.00 in0.0 mm 0.00 in0.0 mm 0.03 in0.8 mm
05:11 AM 75.5°F24.2°C 72.7°F22.6°C 91% 1.0 mph WNW1.6 kmh WNW 7.0 mph11.3 kmh 29.88 in1011.9 mb 0.00 in0.0 mm 0.00 in0.0 mm 0.02 in0.5 mm
05:06 AM 75.8°F24.3°C 73.3°F22.9°C 92% 1.0 mph NW1.6 kmh NW 3.0 mph4.8 kmh 29.87 in1011.5 mb 0.00 in0.0 mm 0.00 in0.0 mm 0.02 in0.5 mm
05:01 AM 75.9°F24.4°C 73.1°F22.8°C 91% Calm Calm -- 29.86 in1011.2 mb 0.00 in0.0 mm 0.00 in0.0 mm 0.02 in0.5 mm
04:56 AM 76.1°F24.5°C 73.3°F22.9°C 91% Calm Calm -- 29.86 in1011.2 mb 0.00 in0.0 mm 0.00 in0.0 mm 0.02 in0.5 mm
04:51 AM 76.4°F24.7°C 73.6°F23.1°C 91% Calm Calm -- 29.85 in1010.8 mb 0.00 in0.0 mm 0.00 in0.0 mm 0.02 in0.5 mm
04:46 AM 76.6°F24.8°C 73.8°F23.2°C 91% Calm Calm 2.0 mph3.2 kmh 29.85 in1010.8 mb 0.00 in0.0 mm 0.00 in0.0 mm 0.02 in0.5 mm
04:41 AM 76.7°F24.8°C 73.9°F23.3°C 91% Calm Calm 2.0 mph3.2 kmh 29.84 in1010.5 mb 0.00 in0.0 mm 0.00 in0.0 mm 0.02 in0.5 mm
04:36 AM 77.0°F25.0°C 73.8°F23.2°C 90% 1.0 mph NW1.6 kmh NW 1.0 mph1.6 kmh 29.82 in1009.8 mb 0.04 in1.0 mm 0.00 in0.0 mm 0.02 in0.5 mm
04:31 AM 77.3°F25.2°C 73.8°F23.2°C 89% 1.0 mph NW1.6 kmh NW 2.0 mph3.2 kmh 29.82 in1009.8 mb 0.07 in1.8 mm 0.00 in0.0 mm 0.02 in0.5 mm
04:26 AM 77.6°F25.3°C 74.1°F23.4°C 89% 1.0 mph NW1.6 kmh NW 6.0 mph9.7 kmh 29.82 in1009.8 mb 0.09 in2.3 mm 1.08 in27.4 mm 0.02 in0.5 mm
04:21 AM 78.0°F25.6°C 74.5°F23.6°C 89% 1.0 mph NW1.6 kmh NW 6.0 mph9.7 kmh 29.81 in1009.5 mb 0.00 in0.0 mm 0.00 in0.0 mm 0.01 in0.3 mm
04:16 AM 78.2°F25.7°C 74.7°F23.7°C 89% 1.0 mph E1.6 kmh E 6.0 mph9.7 kmh 29.81 in1009.5 mb 0.00 in0.0 mm 0.00 in0.0 mm 0.00 in0.0 mm
04:11 AM 78.1°F25.6°C 74.6°F23.7°C 89% 2.0 mph W3.2 kmh W 5.0 mph8.0 kmh 29.83 in1010.2 mb 0.00 in0.0 mm 0.00 in0.0 mm 0.00 in0.0 mm
04:06 AM 78.1°F25.6°C 74.6°F23.7°C 89% 3.0 mph S4.8 kmh S 4.0 mph6.4 kmh 29.83 in1010.2 mb 0.00 in0.0 mm 0.00 in0.0 mm 0.00 in0.0 mm
04:01 AM 78.1°F25.6°C 74.9°F23.8°C 90% 1.0 mph WSW1.6 kmh WSW 4.0 mph6.4 kmh 29.83 in1010.2 mb 0.00 in0.0 mm 0.00 in0.0 mm 0.00 in0.0 mm
03:56 AM 78.1°F25.6°C 74.9°F23.8°C 90% 1.0 mph SSW1.6 kmh SSW 3.0 mph4.8 kmh 29.82 in1009.8 mb 0.00 in0.0 mm 0.00 in0.0 mm 0.00 in0.0 mm
03:51 AM 78.0°F25.6°C 74.8°F23.8°C 90% Calm Calm 5.0 mph8.0 kmh 29.81 in1009.5 mb 0.00 in0.0 mm 0.00 in0.0 mm 0.00 in0.0 mm
03:46 AM 77.9°F25.5°C 74.7°F23.7°C 90% 1.0 mph SE1.6 kmh SE 4.0 mph6.4 kmh 29.82 in1009.8 mb 0.00 in0.0 mm 0.00 in0.0 mm 0.00 in0.0 mm
03:41 AM 77.8°F25.4°C 75.0°F23.9°C 91% 1.0 mph S1.6 kmh S 6.0 mph9.7 kmh 29.83 in1010.2 mb 0.00 in0.0 mm 0.00 in0.0 mm 0.00 in0.0 mm
03:36 AM 77.8°F25.4°C 75.0°F23.9°C 91% 1.0 mph SSE1.6 kmh SSE 6.0 mph9.7 kmh 29.83 in1010.2 mb 0.00 in0.0 mm 0.00 in0.0 mm 0.00 in0.0 mm
03:30 AM 77.8°F25.4°C 75.0°F23.9°C 91% Calm Calm 6.0 mph9.7 kmh 29.83 in1010.2 mb 0.00 in0.0 mm 0.00 in0.0 mm 0.00 in0.0 mm
03:25 AM 77.8°F25.4°C 75.0°F23.9°C 91% Calm Calm 6.0 mph9.7 kmh 29.82 in1009.8 mb 0.00 in0.0 mm 0.00 in0.0 mm 0.00 in0.0 mm
03:20 AM 77.8°F25.4°C 75.0°F23.9°C 91% Calm Calm -- 29.83 in1010.2 mb 0.00 in0.0 mm 0.00 in0.0 mm 0.00 in0.0 mm
03:15 AM 77.8°F25.4°C 75.0°F23.9°C 91% Calm Calm 1.0 mph1.6 kmh 29.83 in1010.2 mb 0.00 in0.0 mm 0.00 in0.0 mm 0.00 in0.0 mm
03:10 AM 77.8°F25.4°C 75.0°F23.9°C 91% 1.0 mph S1.6 kmh S 1.0 mph1.6 kmh 29.83 in1010.2 mb 0.00 in0.0 mm 0.00 in0.0 mm 0.00 in0.0 mm
03:05 AM 77.9°F25.5°C 75.1°F23.9°C 91% Calm Calm -- 29.83 in1010.2 mb 0.00 in0.0 mm 0.00 in0.0 mm 0.00 in0.0 mm
03:00 AM 78.0°F25.6°C 75.1°F23.9°C 91% Calm Calm -- 29.82 in1009.8 mb 0.00 in0.0 mm 0.00 in0.0 mm 0.00 in0.0 mm
02:55 AM 78.2°F25.7°C 75.3°F24.1°C 91% Calm Calm -- 29.82 in1009.8 mb 0.00 in0.0 mm 0.00 in0.0 mm 0.00 in0.0 mm
02:50 AM 78.3°F25.7°C 75.4°F24.1°C 91% Calm Calm -- 29.82 in1009.8 mb 0.00 in0.0 mm 0.00 in0.0 mm 0.00 in0.0 mm
02:45 AM 78.3°F25.7°C 75.4°F24.1°C 91% Calm Calm -- 29.82 in1009.8 mb 0.00 in0.0 mm 0.00 in0.0 mm 0.00 in0.0 mm
02:40 AM 78.4°F25.8°C 75.5°F24.2°C 91% Calm Calm -- 29.82 in1009.8 mb 0.00 in0.0 mm 0.00 in0.0 mm 0.00 in0.0 mm
02:35 AM 78.4°F25.8°C 75.5°F24.2°C 91% Calm Calm -- 29.82 in1009.8 mb 0.00 in0.0 mm 0.00 in0.0 mm 0.00 in0.0 mm
02:30 AM 78.5°F25.8°C 75.6°F24.2°C 91% Calm Calm -- 29.82 in1009.8 mb 0.00 in0.0 mm 0.00 in0.0 mm 0.00 in0.0 mm
02:25 AM 78.5°F25.8°C 75.3°F24.1°C 90% Calm Calm -- 29.82 in1009.8 mb 0.00 in0.0 mm 0.00 in0.0 mm 0.00 in0.0 mm
02:20 AM 78.6°F25.9°C 75.4°F24.1°C 90% Calm Calm -- 29.82 in1009.8 mb 0.00 in0.0 mm 0.00 in0.0 mm 0.00 in0.0 mm
02:15 AM 78.7°F25.9°C 75.5°F24.2°C 90% Calm Calm -- 29.82 in1009.8 mb 0.00 in0.0 mm 0.00 in0.0 mm 0.00 in0.0 mm
02:10 AM 78.7°F25.9°C 75.5°F24.2°C 90% Calm Calm -- 29.82 in1009.8 mb 0.00 in0.0 mm 0.00 in0.0 mm 0.00 in0.0 mm
02:05 AM 78.8°F26.0°C 75.6°F24.2°C 90% Calm Calm -- 29.82 in1009.8 mb 0.00 in0.0 mm 0.00 in0.0 mm 0.00 in0.0 mm
02:00 AM 78.9°F26.1°C 75.7°F24.3°C 90% Calm Calm -- 29.82 in1009.8 mb 0.00 in0.0 mm 0.00 in0.0 mm 0.00 in0.0 mm
01:55 AM 78.9°F26.1°C 75.7°F24.3°C 90% Calm Calm -- 29.82 in1009.8 mb 0.00 in0.0 mm 0.00 in0.0 mm 0.00 in0.0 mm
01:50 AM 79.1°F26.2°C 75.9°F24.4°C 90% Calm Calm -- 29.81 in1009.5 mb 0.00 in0.0 mm 0.00 in0.0 mm 0.00 in0.0 mm
01:45 AM 79.1°F26.2°C 75.9°F24.4°C 90% Calm Calm -- 29.81 in1009.5 mb 0.00 in0.0 mm 0.00 in0.0 mm 0.00 in0.0 mm
01:40 AM 79.2°F26.2°C 75.7°F24.3°C 89% Calm Calm -- 29.81 in1009.5 mb 0.00 in0.0 mm 0.00 in0.0 mm 0.00 in0.0 mm
01:35 AM 79.3°F26.3°C 75.8°F24.3°C 89% Calm Calm 4.0 mph6.4 kmh 29.81 in1009.5 mb 0.00 in0.0 mm 0.00 in0.0 mm 0.00 in0.0 mm
01:30 AM 79.4°F26.3°C 75.9°F24.4°C 89% 1.0 mph S1.6 kmh S 3.0 mph4.8 kmh 29.81 in1009.5 mb 0.00 in0.0 mm 0.00 in0.0 mm 0.00 in0.0 mm
01:25 AM 79.5°F26.4°C 76.0°F24.4°C 89% 1.0 mph S1.6 kmh S 3.0 mph4.8 kmh 29.80 in1009.1 mb 0.00 in0.0 mm 0.00 in0.0 mm 0.00 in0.0 mm
01:20 AM 79.6°F26.4°C 76.1°F24.5°C 89% 1.0 mph S1.6 kmh S 4.0 mph6.4 kmh 29.81 in1009.5 mb 0.00 in0.0 mm 0.00 in0.0 mm 0.00 in0.0 mm
01:15 AM 79.6°F26.4°C 76.1°F24.5°C 89% Calm Calm 3.0 mph4.8 kmh 29.81 in1009.5 mb 0.00 in0.0 mm 0.00 in0.0 mm 0.00 in0.0 mm
01:10 AM 79.7°F26.5°C 76.2°F24.6°C 89% 1.0 mph S1.6 kmh S 2.0 mph3.2 kmh 29.81 in1009.5 mb 0.00 in0.0 mm 0.00 in0.0 mm 0.00 in0.0 mm
01:05 AM 79.8°F26.6°C 76.3°F24.6°C 89% Calm Calm 2.0 mph3.2 kmh 29.81 in1009.5 mb 0.00 in0.0 mm 0.00 in0.0 mm 0.00 in0.0 mm
01:00 AM 79.8°F26.6°C 76.3°F24.6°C 89% 1.0 mph S1.6 kmh S 3.0 mph4.8 kmh 29.81 in1009.5 mb 0.00 in0.0 mm 0.00 in0.0 mm 0.00 in0.0 mm
12:55 AM 79.9°F26.6°C 76.4°F24.7°C 89% Calm Calm 2.0 mph3.2 kmh 29.81 in1009.5 mb 0.00 in0.0 mm 0.00 in0.0 mm 0.00 in0.0 mm
12:50 AM 79.9°F26.6°C 76.4°F24.7°C 89% Calm Calm -- 29.81 in1009.5 mb 0.00 in0.0 mm 0.00 in0.0 mm 0.00 in0.0 mm
12:45 AM 80.0°F26.7°C 76.1°F24.5°C 88% Calm Calm 3.0 mph4.8 kmh 29.81 in1009.5 mb 0.00 in0.0 mm 0.00 in0.0 mm 0.00 in0.0 mm
12:40 AM 80.1°F26.7°C 76.2°F24.6°C 88% 1.0 mph SSW1.6 kmh SSW 3.0 mph4.8 kmh 29.81 in1009.5 mb 0.00 in0.0 mm 0.00 in0.0 mm 0.00 in0.0 mm
12:35 AM 80.2°F26.8°C 76.3°F24.6°C 88% Calm Calm -- 29.81 in1009.5 mb 0.00 in0.0 mm 0.00 in0.0 mm 0.00 in0.0 mm
12:30 AM 80.2°F26.8°C 76.3°F24.6°C 88% Calm Calm -- 29.81 in1009.5 mb 0.00 in0.0 mm 0.00 in0.0 mm 0.00 in0.0 mm
12:25 AM 80.3°F26.8°C 76.4°F24.7°C 88% 1.0 mph SSE1.6 kmh SSE 4.0 mph6.4 kmh 29.81 in1009.5 mb 0.00 in0.0 mm 0.00 in0.0 mm 0.00 in0.0 mm
12:20 AM 80.4°F26.9°C 76.2°F24.6°C 87% 2.0 mph SSE3.2 kmh SSE 4.0 mph6.4 kmh 29.80 in1009.1 mb 0.00 in0.0 mm 0.00 in0.0 mm 0.00 in0.0 mm
12:15 AM 80.5°F26.9°C 76.3°F24.6°C 87% Calm Calm -- 29.80 in1009.1 mb 0.00 in0.0 mm 0.00 in0.0 mm 0.00 in0.0 mm
12:10 AM 80.6°F27.0°C 76.4°F24.7°C 87% Calm Calm 2.0 mph3.2 kmh 29.81 in1009.5 mb 0.00 in0.0 mm 0.00 in0.0 mm 0.00 in0.0 mm
12:05 AM 80.7°F27.1°C 76.5°F24.7°C 87% 1.0 mph S1.6 kmh S 2.0 mph3.2 kmh 29.81 in1009.5 mb 0.00 in0.0 mm 0.00 in0.0 mm 0.00 in0.0 mm
12:00 AM 80.8°F27.1°C 76.6°F24.8°C 87% Calm Calm 1.0 mph1.6 kmh 29.80 in1009.1 mb 0.00 in0.0 mm 0.00 in0.0 mm 0.00 in0.0 mm